KCOD/COD METAR and TAF weather

Enter ICAO airport designator
Station Type Date Time Source
KCOD METAR 2022/01/25 03:56 UTC NOAA

KCOD 250356Z AUTO 02004KT 10SM OVC014 M02/M04 A3006 RMK AO2 SNE38 SLP222 P0000 T10221039 FZRANO


Station Type Date Time Source
KCOD Decoded METAR 2022/01/25 03:56 UTC NOAA

Cody, WY, United States (KCOD) 44-31N 109-01W 1553M
Jan 24, 2022 - 10:56 PM EST / 2022.01.25 0356 UTC
Wind: from the NNE (020 degrees) at 5 MPH (4 KT):0
Visibility: 10 mile(s):0
Sky conditions: overcast
Precipitation last hour: A trace
Temperature: 28.0 F (-2.2 C)
Windchill: 23 F (-5 C):1
Dew Point: 25.0 F (-3.9 C)
Relative Humidity: 88%
Pressure (altimeter): 30.06 in. Hg (1017 hPa)
ob: KCOD 250356Z AUTO 02004KT 10SM OVC014 M02/M04 A3006 RMK AO2 SNE38 SLP222 P0000 T10221039 FZRANO
cycle: 4

Station Type Date Time Source
KCOD TAF 2022/01/25 04:36 UTC NOAA

TAF
AMD KCOD 250333Z 2504/2524 35008KT 4SM -SN FEW010 BKN015
FM251000 30012G18KT P6SM OVC040
FM251400 VRB04KT P6SM OVC050

Example: see airport list